Alexis Creek, Canada
Current Conditions -  °F | °C
As of 1:00 AM on Wednesday 26 Nov 2014 (Local Time) from CYWL Reporting Station
Light Snow Light Snow  
Wind Chill: 23°   Ceiling: 2000
Heat Index: 28°   Visibility: 3mi
Dew Point: 28°   Wind: 5mph
Humidity: 100%   Direction: 90°E
Pressure: 30.11"   Gusts: NA
Location:  52.08°N, 123.28°W
Report Text: CYWL 260900Z 09004KT 3SM -SN OVC020 M02/M02 A3011 RMK SC8 SLP239
Loading
Personal Weather Stations






























Interactive Weather Map New forecast layout! Learn more

10-Day Weather Forecast

Advertisements
Track Severe Weather on mobile